createdAt,value
2018-08-04T00:00:12.131Z,7.20
2018-08-04T00:02:42.096Z,7.57
2018-08-04T00:05:12.080Z,7.83
2018-08-04T00:07:42.076Z,7.80
2018-08-04T00:10:17.548Z,7.03
2018-08-04T00:12:50.027Z,7.50
2018-08-04T00:15:20.789Z,7.60
2018-08-04T00:17:50.770Z,6.70
2018-08-04T00:20:21.138Z,7.47
2018-08-04T00:22:51.356Z,6.20
2018-08-04T00:25:22.099Z,6.47
2018-08-04T00:27:52.092Z,6.70
2018-08-04T00:30:22.192Z,5.97
2018-08-04T00:32:52.079Z,5.77
2018-08-04T00:35:22.332Z,6.03
2018-08-04T00:37:52.732Z,5.93
2018-08-04T00:40:22.980Z,5.47
2018-08-04T00:42:52.910Z,6.33
2018-08-04T00:45:22.939Z,7.03
2018-08-04T00:47:53.087Z,6.53
2018-08-04T00:50:23.048Z,6.37
2018-08-04T00:52:52.923Z,6.53
2018-08-04T00:55:23.077Z,5.70
2018-08-04T00:57:53.084Z,6.20
2018-08-04T01:00:22.967Z,5.80
2018-08-04T01:02:52.837Z,5.90
2018-08-04T01:05:22.663Z,6.27
2018-08-04T01:07:53.156Z,7.37
2018-08-04T01:10:23.120Z,7.53
2018-08-04T01:12:53.327Z,8.07
2018-08-04T01:15:23.444Z,8.57
2018-08-04T01:17:53.325Z,8.20
2018-08-04T01:20:23.368Z,8.10
2018-08-04T01:22:53.277Z,8.67
2018-08-04T01:25:23.223Z,8.27
2018-08-04T01:27:53.612Z,7.53
2018-08-04T01:30:23.612Z,6.97
2018-08-04T01:32:53.576Z,7.53
2018-08-04T01:35:23.896Z,6.83
2018-08-04T01:37:53.900Z,6.20
2018-08-04T01:40:23.831Z,6.37
2018-08-04T01:42:54.200Z,6.03
2018-08-04T01:45:24.036Z,7.50
2018-08-04T01:47:54.198Z,7.27
2018-08-04T01:50:23.967Z,6.70
2018-08-04T01:52:53.816Z,7.50
2018-08-04T01:55:23.967Z,7.27
2018-08-04T01:57:54.032Z,8.10
2018-08-04T02:00:24.061Z,8.50
2018-08-04T02:02:53.915Z,9.43
2018-08-04T02:05:24.100Z,9.20
2018-08-04T02:07:54.488Z,8.43
2018-08-04T02:10:24.473Z,8.70
2018-08-04T02:12:54.403Z,9.40
2018-08-04T02:15:24.716Z,10.97
2018-08-04T02:17:54.923Z,11.83
2018-08-04T02:20:24.809Z,9.87
2018-08-04T02:22:54.804Z,10.27
2018-08-04T02:25:25.060Z,11.50
2018-08-04T02:27:55.295Z,11.43
2018-08-04T02:30:25.212Z,11.07
2018-08-04T02:32:55.296Z,11.10
2018-08-04T02:35:25.693Z,11.40
2018-08-04T02:37:55.674Z,11.63
2018-08-04T02:40:25.816Z,11.50
2018-08-04T02:42:55.824Z,11.43
2018-08-04T02:45:26.024Z,11.07
2018-08-04T02:47:55.919Z,11.77
2018-08-04T02:50:25.748Z,11.13
2018-08-04T02:52:55.539Z,13.53
2018-08-04T02:55:25.557Z,12.43
2018-08-04T02:57:55.699Z,11.73
2018-08-04T03:00:25.580Z,12.00
2018-08-04T03:02:55.584Z,11.67
2018-08-04T03:05:25.948Z,12.53
2018-08-04T03:07:55.789Z,12.63
2018-08-04T03:10:26.209Z,11.43
2018-08-04T03:12:56.212Z,12.90
2018-08-04T03:15:26.232Z,11.93
2018-08-04T03:17:56.264Z,12.00
2018-08-04T03:20:26.261Z,12.30
2018-08-04T03:22:56.169Z,11.67
2018-08-04T03:25:26.181Z,12.80
2018-08-04T03:27:56.115Z,12.07
2018-08-04T03:30:26.190Z,12.90
2018-08-04T03:32:56.174Z,11.57
2018-08-04T03:35:26.228Z,13.20
2018-08-04T03:37:56.116Z,12.67
2018-08-04T03:40:26.000Z,12.07
2018-08-04T03:42:56.444Z,11.93
2018-08-04T03:45:26.339Z,9.80
2018-08-04T03:47:56.707Z,9.17
2018-08-04T03:50:26.752Z,8.77
2018-08-04T03:52:56.630Z,7.70
2018-08-04T03:55:26.650Z,8.20
2018-08-04T03:57:56.832Z,7.33
2018-08-04T04:00:26.666Z,8.63
2018-08-04T04:02:56.837Z,7.30
2018-08-04T04:05:26.737Z,7.67
2018-08-04T04:07:56.680Z,7.47
2018-08-04T04:10:26.668Z,8.57
2018-08-04T04:12:56.836Z,9.47
2018-08-04T04:15:27.070Z,8.93
2018-08-04T04:17:57.530Z,8.97
2018-08-04T04:20:27.683Z,8.00
2018-08-04T04:22:58.271Z,7.47
2018-08-04T04:25:28.465Z,6.37
2018-08-04T04:27:58.325Z,6.70
2018-08-04T04:30:28.732Z,21.10
2018-08-04T04:32:58.737Z,7.47
2018-08-04T04:35:29.419Z,6.40
2018-08-04T04:37:59.412Z,6.60
2018-08-04T04:40:29.437Z,7.40
2018-08-04T04:42:59.282Z,5.67
2018-08-04T04:45:29.527Z,5.77
2018-08-04T04:47:59.543Z,5.80
2018-08-04T04:50:29.752Z,6.90
2018-08-04T04:52:59.961Z,14.37
2018-08-04T04:55:30.289Z,10.17
2018-08-04T04:58:00.368Z,6.60
2018-08-04T05:00:30.864Z,6.00
2018-08-04T05:03:00.984Z,5.63
2018-08-04T05:05:30.884Z,11.03
2018-08-04T05:08:01.380Z,5.77
2018-08-04T05:10:31.314Z,6.33
2018-08-04T05:13:01.574Z,5.63
2018-08-04T05:15:31.737Z,6.30
2018-08-04T05:18:02.068Z,5.80
2018-08-04T05:20:32.568Z,5.90
2018-08-04T05:23:02.505Z,5.40
2018-08-04T05:25:32.504Z,5.23
2018-08-04T05:28:02.320Z,5.63
2018-08-04T05:30:32.359Z,6.20
2018-08-04T05:33:02.336Z,8.30
2018-08-04T05:35:32.197Z,5.97
2018-08-04T05:38:02.099Z,5.43
2018-08-04T05:40:32.452Z,5.47
2018-08-04T05:43:03.473Z,5.07
2018-08-04T05:45:33.535Z,5.17
2018-08-04T05:48:03.558Z,5.13
2018-08-04T05:50:33.380Z,7.03
2018-08-04T05:53:03.524Z,5.60
2018-08-04T05:55:33.554Z,5.70
2018-08-04T05:58:03.607Z,10.90
2018-08-04T06:00:33.479Z,6.07
2018-08-04T06:03:03.388Z,6.23
2018-08-04T06:05:34.229Z,5.67
2018-08-04T06:08:04.359Z,6.93
2018-08-04T06:10:34.506Z,6.37
2018-08-04T06:13:04.516Z,6.20
2018-08-04T06:15:34.619Z,6.50
2018-08-04T06:18:04.505Z,7.53
2018-08-04T06:20:34.607Z,6.70
2018-08-04T06:23:04.853Z,8.77
2018-08-04T06:25:35.048Z,6.80
2018-08-04T06:28:05.179Z,6.07
2018-08-04T06:30:35.403Z,6.60
2018-08-04T06:33:05.413Z,6.57
2018-08-04T06:35:35.307Z,6.93
2018-08-04T06:38:05.453Z,6.50
2018-08-04T06:40:35.875Z,6.60
2018-08-04T06:43:05.881Z,6.67
2018-08-04T06:45:36.218Z,6.87
2018-08-04T06:48:06.432Z,6.90
2018-08-04T06:50:36.462Z,6.20
2018-08-04T06:53:06.452Z,9.13
2018-08-04T06:55:36.906Z,6.60
2018-08-04T06:58:06.912Z,7.03
2018-08-04T07:00:37.159Z,7.13
2018-08-04T07:03:07.821Z,4.47
2018-08-04T07:05:38.077Z,6.23
2018-08-04T07:08:08.016Z,6.10
2018-08-04T07:10:37.863Z,5.70
2018-08-04T07:13:08.256Z,4.70
2018-08-04T07:15:38.118Z,4.23
2018-08-04T07:18:08.124Z,4.17
2018-08-04T07:20:38.276Z,4.80
2018-08-04T07:23:08.509Z,4.10
2018-08-04T07:25:38.396Z,4.10
2018-08-04T07:28:08.953Z,5.37
2018-08-04T07:30:39.280Z,3.73
2018-08-04T07:33:09.419Z,4.63
2018-08-04T07:35:39.905Z,4.30
2018-08-04T07:38:10.191Z,4.40
2018-08-04T07:40:40.049Z,4.50
2018-08-04T07:43:10.396Z,4.53
2018-08-04T07:45:40.461Z,4.07
2018-08-04T07:48:10.565Z,4.10
2018-08-04T07:50:40.599Z,4.10
2018-08-04T07:53:10.585Z,4.37
2018-08-04T07:55:40.949Z,5.07
2018-08-04T07:58:11.457Z,4.07
2018-08-04T08:00:41.630Z,4.17
2018-08-04T08:03:11.851Z,4.23
2018-08-04T08:05:42.150Z,4.07
2018-08-04T08:08:12.293Z,4.23
2018-08-04T08:10:42.454Z,4.33
2018-08-04T08:13:12.776Z,4.60
2018-08-04T08:15:43.416Z,4.27
2018-08-04T08:18:13.224Z,4.20
2018-08-04T08:20:43.102Z,4.90
2018-08-04T08:23:13.054Z,4.63
2018-08-04T08:25:52.472Z,4.47
2018-08-04T08:28:22.277Z,4.57
2018-08-04T08:30:52.444Z,4.30
2018-08-04T08:33:22.652Z,4.30
2018-08-04T08:35:52.593Z,4.37
2018-08-04T08:38:22.608Z,3.83
2018-08-04T08:40:52.788Z,4.77
2018-08-04T08:43:22.758Z,4.60
2018-08-04T08:45:52.583Z,4.30
2018-08-04T08:48:22.519Z,4.30
2018-08-04T08:50:52.427Z,4.80
2018-08-04T08:53:22.622Z,4.30
2018-08-04T08:55:52.988Z,4.77
2018-08-04T08:58:22.989Z,4.70
2018-08-04T09:00:52.863Z,4.90
2018-08-04T09:03:22.688Z,4.57
2018-08-04T09:05:52.772Z,4.90
2018-08-04T09:08:22.528Z,4.97
2018-08-04T09:10:52.845Z,4.87
2018-08-04T09:13:22.720Z,5.17
2018-08-04T09:15:53.044Z,5.00
2018-08-04T09:18:23.072Z,4.73
2018-08-04T09:20:53.069Z,4.63
2018-08-04T09:23:22.940Z,5.07
2018-08-04T09:25:53.302Z,4.60
2018-08-04T09:28:23.341Z,4.47
2018-08-04T09:30:53.841Z,4.37
2018-08-04T09:33:23.796Z,4.63
2018-08-04T09:35:54.167Z,4.67
2018-08-04T09:38:24.059Z,4.77
2018-08-04T09:40:54.023Z,4.90
2018-08-04T09:43:23.900Z,5.00
2018-08-04T09:45:53.959Z,4.60
2018-08-04T09:48:23.914Z,5.20
2018-08-04T09:50:53.937Z,4.47
2018-08-04T09:53:24.097Z,4.77
2018-08-04T09:55:53.977Z,4.60
2018-08-04T09:58:23.977Z,4.67
2018-08-04T10:00:59.098Z,4.63
2018-08-04T10:03:29.099Z,4.47
2018-08-04T10:05:59.488Z,4.50
2018-08-04T10:08:29.359Z,13.10
2018-08-04T10:10:59.360Z,4.53
2018-08-04T10:13:29.331Z,4.73
2018-08-04T10:15:59.250Z,4.47
2018-08-04T10:18:29.079Z,4.90
2018-08-04T10:20:58.923Z,4.73
2018-08-04T10:23:28.805Z,4.60
2018-08-04T10:25:59.209Z,4.37
2018-08-04T10:28:29.512Z,4.40
2018-08-04T10:30:59.539Z,4.80
2018-08-04T10:33:29.596Z,5.03
2018-08-04T10:35:59.481Z,4.80
2018-08-04T10:38:29.518Z,4.63
2018-08-04T10:40:59.438Z,4.67
2018-08-04T10:43:29.872Z,4.40
2018-08-04T10:45:59.603Z,4.60
2018-08-04T10:48:29.308Z,4.53
2018-08-04T10:50:59.112Z,5.10
2018-08-04T10:53:29.076Z,4.47
2018-08-04T10:55:59.091Z,4.50
2018-08-04T10:58:28.981Z,5.27
2018-08-04T11:00:58.827Z,4.43
2018-08-04T11:03:29.151Z,4.70
2018-08-04T11:05:59.245Z,4.73
2018-08-04T11:08:28.967Z,4.50
2018-08-04T11:10:58.799Z,4.30
2018-08-04T11:13:28.901Z,4.87
2018-08-04T11:15:58.754Z,5.00
2018-08-04T11:18:28.838Z,4.43
2018-08-04T11:20:58.637Z,4.80
2018-08-04T11:23:28.441Z,4.50
2018-08-04T11:25:58.408Z,4.63
2018-08-04T11:28:28.395Z,4.57
2018-08-04T11:30:58.703Z,5.30
2018-08-04T11:33:28.543Z,4.30
2018-08-04T11:35:58.340Z,5.17
2018-08-04T11:38:28.116Z,4.83
2018-08-04T11:40:58.507Z,4.40
2018-08-04T11:43:28.684Z,5.07
2018-08-04T11:45:58.577Z,4.70
2018-08-04T11:48:28.469Z,5.00
2018-08-04T11:50:58.593Z,5.30
2018-08-04T11:53:28.802Z,4.80
2018-08-04T11:55:58.792Z,4.63
2018-08-04T11:58:28.632Z,5.07
2018-08-04T12:00:58.504Z,4.90
2018-08-04T12:03:28.476Z,5.03
2018-08-04T12:05:58.297Z,5.17
2018-08-04T12:08:28.018Z,7.20
2018-08-04T12:10:58.813Z,5.07
2018-08-04T12:13:28.741Z,4.93
2018-08-04T12:15:59.057Z,5.47
2018-08-04T12:18:29.046Z,5.10
2018-08-04T12:20:58.938Z,5.10
2018-08-04T12:23:28.728Z,5.30
2018-08-04T12:25:59.026Z,5.33
2018-08-04T12:28:29.824Z,5.40
2018-08-04T12:30:59.763Z,5.57
2018-08-04T12:33:29.640Z,5.80
2018-08-04T12:36:00.404Z,5.77
2018-08-04T12:38:30.240Z,6.10
2018-08-04T12:41:00.175Z,6.03
2018-08-04T12:43:30.000Z,5.30
2018-08-04T12:45:59.910Z,6.60
2018-08-04T12:48:30.331Z,6.37
2018-08-04T12:51:02.161Z,5.23
2018-08-04T12:53:32.190Z,5.53
2018-08-04T12:56:02.655Z,5.73
2018-08-04T12:58:32.351Z,6.13
2018-08-04T13:01:02.236Z,5.77
2018-08-04T13:03:32.071Z,5.90
2018-08-04T13:06:01.834Z,6.37
2018-08-04T13:08:32.004Z,6.67
2018-08-04T13:11:01.668Z,7.27
2018-08-04T13:13:31.788Z,6.00
2018-08-04T13:16:01.701Z,6.13
2018-08-04T13:18:31.423Z,6.53
2018-08-04T13:21:01.458Z,6.87
2018-08-04T13:23:31.267Z,6.30
2018-08-04T13:26:01.276Z,5.70
2018-08-04T13:28:31.074Z,6.10
2018-08-04T13:31:01.310Z,6.60
2018-08-04T13:33:30.980Z,6.73
2018-08-04T13:36:00.783Z,6.50
2018-08-04T13:38:30.663Z,6.10
2018-08-04T13:41:01.009Z,5.67
2018-08-04T13:43:31.515Z,6.27
2018-08-04T13:46:01.500Z,6.43
2018-08-04T13:48:31.368Z,5.87
2018-08-04T13:51:01.601Z,6.30
2018-08-04T13:53:31.471Z,6.30
2018-08-04T13:56:01.300Z,5.80
2018-08-04T13:58:31.016Z,6.30
2018-08-04T14:01:00.928Z,6.10
2018-08-04T14:03:30.678Z,6.13
2018-08-04T14:06:00.692Z,5.80
2018-08-04T14:08:30.427Z,6.63
2018-08-04T14:11:00.352Z,6.30
2018-08-04T14:13:30.156Z,5.70
2018-08-04T14:15:59.866Z,6.27
2018-08-04T14:18:30.291Z,6.00
2018-08-04T14:21:00.005Z,5.33
2018-08-04T14:23:30.056Z,5.87
2018-08-04T14:26:00.259Z,6.00
2018-08-04T14:28:30.136Z,5.70
2018-08-04T14:31:00.216Z,5.70
2018-08-04T14:33:30.201Z,5.67
2018-08-04T14:35:59.971Z,5.30
2018-08-04T14:38:29.840Z,5.33
2018-08-04T14:40:59.495Z,5.50
2018-08-04T14:43:29.286Z,5.60
2018-08-04T14:45:59.355Z,5.80
2018-08-04T14:48:29.112Z,5.27
2018-08-04T14:50:58.828Z,6.47
2018-08-04T14:53:28.669Z,6.23
2018-08-04T14:55:58.516Z,5.93
2018-08-04T14:58:28.341Z,6.03
2018-08-04T15:00:58.044Z,6.27
2018-08-04T15:03:28.248Z,5.57
2018-08-04T15:05:58.369Z,6.23
2018-08-04T15:08:28.536Z,6.27
2018-08-04T15:10:58.444Z,6.60
2018-08-04T15:13:28.480Z,7.23
2018-08-04T15:15:58.308Z,6.93
2018-08-04T15:18:28.210Z,6.73
2018-08-04T15:20:58.401Z,6.73
2018-08-04T15:23:28.310Z,6.20
2018-08-04T15:25:58.087Z,6.67
2018-08-04T15:28:27.804Z,6.67
2018-08-04T15:30:57.688Z,6.77
2018-08-04T15:33:27.463Z,7.23
2018-08-04T15:35:57.664Z,7.07
2018-08-04T15:38:27.540Z,6.57
2018-08-04T15:40:57.337Z,6.83
2018-08-04T15:43:27.776Z,6.47
2018-08-04T15:45:57.470Z,6.70
2018-08-04T15:48:27.484Z,7.60
2018-08-04T15:50:57.272Z,6.57
2018-08-04T15:53:26.964Z,6.73
2018-08-04T15:55:56.931Z,6.67
2018-08-04T15:58:26.640Z,6.30
2018-08-04T16:00:56.379Z,6.37
2018-08-04T16:03:26.332Z,6.87
2018-08-04T16:05:56.608Z,7.10
2018-08-04T16:08:26.316Z,6.60
2018-08-04T16:10:56.155Z,7.43
2018-08-04T16:13:25.872Z,6.70
2018-08-04T16:15:55.780Z,6.53
2018-08-04T16:18:25.583Z,6.47
2018-08-04T16:20:55.264Z,6.93
2018-08-04T16:23:25.429Z,8.40
2018-08-04T16:25:55.343Z,6.80
2018-08-04T16:28:25.359Z,6.90
2018-08-04T16:30:55.179Z,6.80
2018-08-04T16:33:24.957Z,7.13
2018-08-04T16:35:55.397Z,6.67
2018-08-04T16:38:25.156Z,7.40
2018-08-04T16:40:54.851Z,7.37
2018-08-04T16:43:24.761Z,7.30
2018-08-04T16:45:54.492Z,7.77
2018-08-04T16:48:24.286Z,8.13
2018-08-04T16:50:54.332Z,8.13
2018-08-04T16:53:24.493Z,8.30
2018-08-04T16:55:54.291Z,7.87
2018-08-04T16:58:23.991Z,7.93
2018-08-04T17:00:53.889Z,7.80
2018-08-04T17:03:23.951Z,7.83
2018-08-04T17:05:54.013Z,8.00
2018-08-04T17:08:24.062Z,8.03
2018-08-04T17:10:54.428Z,7.73
2018-08-04T17:13:24.513Z,8.47
2018-08-04T17:15:54.312Z,8.80
2018-08-04T17:18:24.950Z,7.73
2018-08-04T17:20:54.692Z,8.93
2018-08-04T17:23:24.548Z,7.80
2018-08-04T17:25:55.418Z,8.10
2018-08-04T17:28:25.812Z,8.53
2018-08-04T17:30:55.651Z,7.97
2018-08-04T17:33:25.845Z,9.23
2018-08-04T17:35:55.611Z,9.07
2018-08-04T17:38:25.303Z,8.33
2018-08-04T17:40:55.408Z,9.57
2018-08-04T17:43:25.533Z,9.10
2018-08-04T17:45:55.300Z,10.00
2018-08-04T17:48:25.573Z,8.53
2018-08-04T17:50:55.320Z,8.63
2018-08-04T17:53:25.092Z,8.70
2018-08-04T17:55:54.936Z,7.90
2018-08-04T17:58:24.648Z,8.40
2018-08-04T18:00:54.798Z,8.33
2018-08-04T18:03:24.529Z,8.10
2018-08-04T18:05:54.587Z,9.43
2018-08-04T18:08:24.295Z,9.57
2018-08-04T18:10:54.150Z,11.33
2018-08-04T18:13:23.857Z,9.57
2018-08-04T18:15:53.693Z,8.83
2018-08-04T18:18:23.902Z,8.40
2018-08-04T18:20:53.888Z,8.23
2018-08-04T18:23:23.896Z,9.10
2018-08-04T18:25:53.915Z,8.93
2018-08-04T18:28:23.784Z,8.17
2018-08-04T18:30:53.641Z,9.33
2018-08-04T18:33:23.714Z,8.10
2018-08-04T18:35:53.768Z,7.43
2018-08-04T18:38:23.687Z,7.33
2018-08-04T18:40:54.061Z,8.43
2018-08-04T18:43:23.932Z,13.57
2018-08-04T18:45:53.780Z,8.23
2018-08-04T18:48:23.696Z,8.70
2018-08-04T18:50:54.057Z,8.07
2018-08-04T18:53:23.835Z,9.70
2018-08-04T18:55:53.657Z,9.00
2018-08-04T18:58:23.512Z,8.70
2018-08-04T19:00:53.736Z,9.07
2018-08-04T19:03:23.489Z,9.67
2018-08-04T19:05:53.210Z,9.20
2018-08-04T19:08:22.931Z,9.13
2018-08-04T19:10:52.641Z,8.83
2018-08-04T19:13:22.796Z,9.90
2018-08-04T19:15:52.508Z,9.30
2018-08-04T19:18:22.236Z,10.47
2018-08-04T19:20:51.964Z,10.37
2018-08-04T19:23:21.794Z,10.30
2018-08-04T19:25:51.924Z,10.63
2018-08-04T19:28:22.014Z,10.47
2018-08-04T19:30:51.869Z,10.30
2018-08-04T19:33:22.025Z,9.87
2018-08-04T19:35:51.948Z,10.57
2018-08-04T19:38:21.796Z,10.20
2018-08-04T19:40:52.024Z,10.17
2018-08-04T19:43:22.015Z,10.47
2018-08-04T19:45:51.729Z,10.90
2018-08-04T19:48:21.836Z,10.83
2018-08-04T19:50:51.724Z,11.90
2018-08-04T19:53:21.519Z,12.00
2018-08-04T19:55:51.739Z,11.83
2018-08-04T19:58:21.581Z,11.23
2018-08-04T20:00:52.017Z,11.27
2018-08-04T20:03:21.855Z,11.30
2018-08-04T20:05:51.575Z,11.83
2018-08-04T20:08:21.506Z,11.80
2018-08-04T20:10:51.369Z,12.07
2018-08-04T20:13:21.219Z,10.87
2018-08-04T20:15:51.124Z,11.70
2018-08-04T20:18:21.010Z,13.70
2018-08-04T20:20:50.816Z,11.53
2018-08-04T20:23:21.057Z,10.23
2018-08-04T20:25:51.223Z,11.57
2018-08-04T20:28:21.468Z,11.70
2018-08-04T20:30:51.291Z,10.37
2018-08-04T20:33:21.251Z,11.50
2018-08-04T20:35:51.515Z,11.33
2018-08-04T20:38:21.640Z,10.40
2018-08-04T20:40:51.672Z,11.20
2018-08-04T20:43:21.788Z,10.50
2018-08-04T20:45:51.519Z,10.17
2018-08-04T20:48:21.307Z,10.60
2018-08-04T20:50:51.288Z,10.83
2018-08-04T20:53:21.412Z,9.97
2018-08-04T20:55:51.479Z,9.67
2018-08-04T20:58:21.379Z,9.40
2018-08-04T21:01:02.107Z,9.67
2018-08-04T21:03:31.992Z,10.00
2018-08-04T21:06:01.775Z,10.37
2018-08-04T21:08:31.616Z,10.70
2018-08-04T21:11:01.448Z,10.70
2018-08-04T21:16:11.608Z,10.83
2018-08-04T21:18:41.328Z,10.73
2018-08-04T21:21:11.540Z,11.00
2018-08-04T21:23:41.247Z,16.27
2018-08-04T21:26:11.036Z,14.77
2018-08-04T21:28:40.747Z,17.63
2018-08-04T21:31:10.692Z,14.60
2018-08-04T21:33:41.125Z,14.07
2018-08-04T21:36:10.856Z,11.90
2018-08-04T21:38:40.651Z,13.97
2018-08-04T21:41:10.723Z,11.63
2018-08-04T21:43:40.552Z,10.80
2018-08-04T21:46:10.512Z,11.30
2018-08-04T21:48:40.876Z,14.10
2018-08-04T21:51:10.773Z,11.27
2018-08-04T21:53:41.641Z,13.00
2018-08-04T21:58:46.997Z,11.33
2018-08-04T22:01:17.760Z,12.57
2018-08-04T22:03:48.021Z,11.17
2018-08-04T22:06:18.547Z,11.00
2018-08-04T22:09:00.211Z,16.43
2018-08-04T22:11:29.924Z,10.67
2018-08-04T22:13:59.753Z,11.83
2018-08-04T22:16:29.665Z,9.70
2018-08-04T22:18:59.795Z,10.60
2018-08-04T22:21:29.640Z,10.53
2018-08-04T22:23:59.456Z,10.60
2018-08-04T22:26:29.444Z,9.87
2018-08-04T22:28:59.256Z,15.50
2018-08-04T22:31:29.132Z,12.67
2018-08-04T22:33:59.115Z,10.20
2018-08-04T22:36:28.923Z,10.30
2018-08-04T22:38:58.808Z,12.00
2018-08-04T22:41:28.768Z,11.90
2018-08-04T22:43:58.519Z,12.43
2018-08-04T22:46:28.512Z,13.73
2018-08-04T22:48:58.288Z,12.90
2018-08-04T22:51:29.769Z,14.40
2018-08-04T22:53:59.896Z,13.57
2018-08-04T22:56:29.716Z,14.73
2018-08-04T22:58:59.792Z,14.60
2018-08-04T23:01:29.848Z,14.70
2018-08-04T23:03:59.662Z,15.23
2018-08-04T23:06:29.595Z,16.20
2018-08-04T23:08:59.479Z,14.77
2018-08-04T23:11:29.231Z,15.27
2018-08-04T23:13:59.257Z,15.10
2018-08-04T23:16:29.108Z,17.57
2018-08-04T23:18:58.946Z,15.53
2018-08-04T23:21:28.935Z,15.03
2018-08-04T23:23:58.749Z,15.23
2018-08-04T23:26:28.995Z,14.17
2018-08-04T23:28:59.335Z,15.10
2018-08-04T23:31:29.489Z,15.10
2018-08-04T23:33:59.476Z,13.90
2018-08-04T23:36:29.507Z,14.33
2018-08-04T23:38:59.404Z,14.00
2018-08-04T23:41:29.516Z,13.80
2018-08-04T23:43:59.412Z,13.33
2018-08-04T23:46:29.245Z,13.57
2018-08-04T23:48:59.104Z,13.70
2018-08-04T23:51:28.844Z,13.87
2018-08-04T23:53:58.788Z,14.77
2018-08-04T23:56:28.632Z,14.83
2018-08-04T23:58:58.424Z,15.13
